Terminal Aerodrome Forecast
Issued by NWS

Home | Current Version | Previous Version | Text Only | Print | Product List | Glossary Off
Versions: 1 2 3 4 5 6 7 8 9 10 11 12 13 14 15 16 17 18 19 20 21

000
FTUS43 KDDC 251720
TAFHYS
TAF
KHYS 251720Z 2518/2618 35012KT P6SM OVC030
     FM252300 04008KT P6SM BKN030
     FM260300 08006KT P6SM SKC
     FM260900 09008KT 5SM BR OVC010
     FM261200 09010KT 3SM BR OVC005
     FM261700 09010G20KT P6SM OVC050
      AMD NOT SKED=

USA.gov is the U.S. government's official web portal to all federal, state and local government web resources and services.